sensor_id;sensor_type;location;lat;lon;timestamp;pressure;altitude;pressure_sealevel;temperature;humidity
61113;BME280;47184;57.998;56.184;2023-03-23T00:01:03;99887.69;;;-2.30;63.73
61113;BME280;47184;57.998;56.184;2023-03-23T00:03:30;99932.00;;;-2.05;63.39
61113;BME280;47184;57.998;56.184;2023-03-23T00:05:58;99935.78;;;-2.10;63.26
61113;BME280;47184;57.998;56.184;2023-03-23T00:08:37;99939.97;;;-2.08;63.16
61113;BME280;47184;57.998;56.184;2023-03-23T00:11:04;99946.94;;;-2.10;63.39
61113;BME280;47184;57.998;56.184;2023-03-23T00:13:30;99941.03;;;-2.12;63.48
61113;BME280;47184;57.998;56.184;2023-03-23T00:15:58;99949.03;;;-2.16;63.88
61113;BME280;47184;57.998;56.184;2023-03-23T00:18:25;99941.84;;;-2.27;63.38
61113;BME280;47184;57.998;56.184;2023-03-23T00:20:55;99943.66;;;-2.29;63.68
61113;BME280;47184;57.998;56.184;2023-03-23T00:23:24;99950.53;;;-2.28;63.77
61113;BME280;47184;57.998;56.184;2023-03-23T00:25:53;99947.31;;;-2.33;63.78
61113;BME280;47184;57.998;56.184;2023-03-23T00:28:23;99951.66;;;-2.34;63.54
61113;BME280;47184;57.998;56.184;2023-03-23T00:31:00;99943.41;;;-2.40;63.48
61113;BME280;47184;57.998;56.184;2023-03-23T00:33:29;99951.16;;;-2.40;63.72
61113;BME280;47184;57.998;56.184;2023-03-23T00:35:56;99951.16;;;-2.40;63.81
61113;BME280;47184;57.998;56.184;2023-03-23T00:38:23;99947.97;;;-2.45;63.63
61113;BME280;47184;57.998;56.184;2023-03-23T00:40:50;99955.50;;;-2.41;63.81
61113;BME280;47184;57.998;56.184;2023-03-23T00:43:19;99954.81;;;-2.44;64.02
61113;BME280;47184;57.998;56.184;2023-03-23T00:45:45;99951.91;;;-2.38;63.78
61113;BME280;47184;57.998;56.184;2023-03-23T00:48:23;99947.91;;;-2.44;63.67
61113;BME280;47184;57.998;56.184;2023-03-23T00:50:51;99960.44;;;-2.36;63.78
61113;BME280;47184;57.998;56.184;2023-03-23T00:53:18;99928.44;;;-2.51;63.60
61113;BME280;47184;57.998;56.184;2023-03-23T00:55:46;99959.69;;;-2.22;63.13
61113;BME280;47184;57.998;56.184;2023-03-23T00:58:14;99937.75;;;-2.31;63.29
61113;BME280;47184;57.998;56.184;2023-03-23T01:00:41;99939.41;;;-2.30;63.09
61113;BME280;47184;57.998;56.184;2023-03-23T01:03:08;99945.84;;;-2.21;63.21
61113;BME280;47184;57.998;56.184;2023-03-23T01:05:38;99957.22;;;-2.24;63.55
61113;BME280;47184;57.998;56.184;2023-03-23T01:08:06;99921.13;;;-2.43;63.32
61113;BME280;47184;57.998;56.184;2023-03-23T01:10:33;99961.59;;;-2.26;63.37
61113;BME280;47184;57.998;56.184;2023-03-23T01:13:00;99953.25;;;-2.31;62.99
61113;BME280;47184;57.998;56.184;2023-03-23T01:15:27;99954.63;;;-2.24;63.68
61113;BME280;47184;57.998;56.184;2023-03-23T01:17:54;99963.13;;;-2.22;63.46
61113;BME280;47184;57.998;56.184;2023-03-23T01:20:20;99932.25;;;-2.41;63.32
61113;BME280;47184;57.998;56.184;2023-03-23T01:22:46;99958.78;;;-2.21;63.13
61113;BME280;47184;57.998;56.184;2023-03-23T01:25:13;99959.13;;;-2.28;63.40
61113;BME280;47184;57.998;56.184;2023-03-23T01:27:40;99959.03;;;-2.26;63.04
61113;BME280;47184;57.998;56.184;2023-03-23T01:30:07;99956.69;;;-2.31;63.26
61113;BME280;47184;57.998;56.184;2023-03-23T01:32:36;99962.84;;;-2.33;63.66
61113;BME280;47184;57.998;56.184;2023-03-23T01:35:02;99968.88;;;-2.33;63.05
61113;BME280;47184;57.998;56.184;2023-03-23T01:37:30;99961.84;;;-2.31;63.81
61113;BME280;47184;57.998;56.184;2023-03-23T01:39:57;99966.44;;;-2.36;63.68
61113;BME280;47184;57.998;56.184;2023-03-23T01:42:30;99968.00;;;-2.33;63.24
61113;BME280;47184;57.998;56.184;2023-03-23T01:48:17;99962.94;;;-2.35;63.63
61113;BME280;47184;57.998;56.184;2023-03-23T01:51:05;99975.72;;;-2.32;63.55
61113;BME280;47184;57.998;56.184;2023-03-23T01:53:40;99980.88;;;-2.32;63.70
61113;BME280;47184;57.998;56.184;2023-03-23T01:56:09;99979.97;;;-2.31;63.54
61113;BME280;47184;57.998;56.184;2023-03-23T01:58:38;99977.38;;;-2.31;63.86
61113;BME280;47184;57.998;56.184;2023-03-23T02:01:07;99971.38;;;-2.31;63.70
61113;BME280;47184;57.998;56.184;2023-03-23T02:03:39;99980.97;;;-2.17;63.59
61113;BME280;47184;57.998;56.184;2023-03-23T02:06:07;99972.63;;;-2.22;63.39
61113;BME280;47184;57.998;56.184;2023-03-23T02:08:40;99985.25;;;-2.16;63.32
61113;BME280;47184;57.998;56.184;2023-03-23T02:11:21;99935.91;;;-2.45;63.47
61113;BME280;47184;57.998;56.184;2023-03-23T02:13:49;99977.41;;;-2.15;63.39
61113;BME280;47184;57.998;56.184;2023-03-23T02:18:56;99987.78;;;-1.99;62.69
61113;BME280;47184;57.998;56.184;2023-03-23T02:21:50;99991.34;;;-2.02;62.75
61113;BME280;47184;57.998;56.184;2023-03-23T02:24:30;99991.19;;;-1.98;62.56
61113;BME280;47184;57.998;56.184;2023-03-23T02:35:50;100000.13;;;-1.88;62.73
61113;BME280;47184;57.998;56.184;2023-03-23T02:38:22;100006.66;;;-1.81;62.53
61113;BME280;47184;57.998;56.184;2023-03-23T02:40:54;100003.16;;;-1.80;62.63
61113;BME280;47184;57.998;56.184;2023-03-23T02:43:22;100006.56;;;-1.64;61.87
61113;BME280;47184;57.998;56.184;2023-03-23T02:45:51;100006.25;;;-1.58;61.93
61113;BME280;47184;57.998;56.184;2023-03-23T02:48:20;100016.38;;;-1.37;61.68
61113;BME280;47184;57.998;56.184;2023-03-23T02:50:51;100011.91;;;-1.35;61.90
61113;BME280;47184;57.998;56.184;2023-03-23T02:53:21;100007.66;;;-1.36;61.45
61113;BME280;47184;57.998;56.184;2023-03-23T02:55:53;100011.22;;;-1.23;61.32
61113;BME280;47184;57.998;56.184;2023-03-23T02:58:24;99996.63;;;-1.24;61.08
61113;BME280;47184;57.998;56.184;2023-03-23T03:00:50;100011.75;;;-1.16;60.85
61113;BME280;47184;57.998;56.184;2023-03-23T03:03:22;100011.00;;;-1.18;60.90
61113;BME280;47184;57.998;56.184;2023-03-23T03:11:45;100031.94;;;-1.07;60.08
61113;BME280;47184;57.998;56.184;2023-03-23T03:14:37;100038.75;;;-0.90;59.47
61113;BME280;47184;57.998;56.184;2023-03-23T03:17:27;100033.91;;;-0.81;59.82
61113;BME280;47184;57.998;56.184;2023-03-23T03:19:59;100028.91;;;-0.84;59.22
61113;BME280;47184;57.998;56.184;2023-03-23T03:22:33;100000.41;;;-1.00;59.36
61113;BME280;47184;57.998;56.184;2023-03-23T03:25:04;100031.53;;;-0.69;59.53
61113;BME280;47184;57.998;56.184;2023-03-23T03:27:31;100031.00;;;-0.60;58.95
61113;BME280;47184;57.998;56.184;2023-03-23T03:30:15;100025.53;;;-0.56;59.27
61113;BME280;47184;57.998;56.184;2023-03-23T03:32:47;100030.56;;;-0.38;58.78
61113;BME280;47184;57.998;56.184;2023-03-23T03:35:16;100033.72;;;-0.33;58.99
61113;BME280;47184;57.998;56.184;2023-03-23T03:37:43;100037.34;;;-0.36;58.36
61113;BME280;47184;57.998;56.184;2023-03-23T03:40:12;100037.47;;;-0.23;58.40
61113;BME280;47184;57.998;56.184;2023-03-23T03:42:42;100022.81;;;-0.24;58.00
61113;BME280;47184;57.998;56.184;2023-03-23T03:45:11;100028.75;;;-0.22;58.15
61113;BME280;47184;57.998;56.184;2023-03-23T03:47:39;100022.81;;;-0.24;57.60
61113;BME280;47184;57.998;56.184;2023-03-23T03:50:05;99993.25;;;-0.36;57.78
61113;BME280;47184;57.998;56.184;2023-03-23T03:52:34;100029.13;;;0.01;57.57
61113;BME280;47184;57.998;56.184;2023-03-23T03:55:01;100022.72;;;0.06;57.47
61113;BME280;47184;57.998;56.184;2023-03-23T03:57:29;100016.31;;;0.12;57.08
61113;BME280;47184;57.998;56.184;2023-03-23T04:00:21;100011.31;;;0.23;56.50
61113;BME280;47184;57.998;56.184;2023-03-23T04:02:50;100024.72;;;0.44;56.13
61113;BME280;47184;57.998;56.184;2023-03-23T04:05:40;99966.38;;;0.35;55.95
61113;BME280;47184;57.998;56.184;2023-03-23T04:08:07;100014.81;;;0.78;55.41
61113;BME280;47184;57.998;56.184;2023-03-23T04:10:33;100014.63;;;0.93;55.29
61113;BME280;47184;57.998;56.184;2023-03-23T04:13:01;99996.88;;;1.00;54.95
61113;BME280;47184;57.998;56.184;2023-03-23T04:15:36;99998.31;;;1.18;54.73
61113;BME280;47184;57.998;56.184;2023-03-23T04:18:02;99993.13;;;1.31;54.62
61113;BME280;47184;57.998;56.184;2023-03-23T04:20:30;99987.19;;;1.42;54.24
61113;BME280;47184;57.998;56.184;2023-03-23T04:22:56;100003.13;;;1.63;53.71
61113;BME280;47184;57.998;56.184;2023-03-23T04:25:24;100009.38;;;1.73;53.78
61113;BME280;47184;57.998;56.184;2023-03-23T04:27:52;100012.41;;;1.92;53.21
61113;BME280;47184;57.998;56.184;2023-03-23T04:30:24;100008.53;;;1.98;52.74
61113;BME280;47184;57.998;56.184;2023-03-23T04:33:11;100007.88;;;2.07;52.53
61113;BME280;47184;57.998;56.184;2023-03-23T04:35:46;100004.44;;;2.19;51.95
61113;BME280;47184;57.998;56.184;2023-03-23T04:38:22;100004.69;;;2.40;52.10
61113;BME280;47184;57.998;56.184;2023-03-23T04:40:56;100006.00;;;2.59;51.16
61113;BME280;47184;57.998;56.184;2023-03-23T04:43:45;100000.75;;;2.71;50.96
61113;BME280;47184;57.998;56.184;2023-03-23T04:46:20;99998.81;;;2.86;50.82
61113;BME280;47184;57.998;56.184;2023-03-23T04:48:49;99988.59;;;2.83;50.71
61113;BME280;47184;57.998;56.184;2023-03-23T04:51:23;100021.53;;;2.84;49.78
61113;BME280;47184;57.998;56.184;2023-03-23T04:53:55;100011.94;;;2.85;49.39
61113;BME280;47184;57.998;56.184;2023-03-23T04:56:23;100014.47;;;2.86;49.60
61113;BME280;47184;57.998;56.184;2023-03-23T04:58:51;100015.72;;;2.81;49.60
61113;BME280;47184;57.998;56.184;2023-03-23T05:01:17;99997.19;;;2.72;49.94
61113;BME280;47184;57.998;56.184;2023-03-23T05:04:00;100003.63;;;2.80;50.21
61113;BME280;47184;57.998;56.184;2023-03-23T05:06:27;100002.06;;;2.77;50.22
61113;BME280;47184;57.998;56.184;2023-03-23T05:08:59;100004.56;;;2.79;49.63
61113;BME280;47184;57.998;56.184;2023-03-23T05:11:25;100002.78;;;2.79;50.27
61113;BME280;47184;57.998;56.184;2023-03-23T05:13:51;100015.66;;;2.93;50.02
61113;BME280;47184;57.998;56.184;2023-03-23T05:16:18;100019.28;;;3.04;49.91
61113;BME280;47184;57.998;56.184;2023-03-23T05:18:44;100014.53;;;3.09;50.36
61113;BME280;47184;57.998;56.184;2023-03-23T05:21:15;100011.16;;;3.19;50.58
61113;BME280;47184;57.998;56.184;2023-03-23T05:23:46;100023.38;;;3.19;50.04
61113;BME280;47184;57.998;56.184;2023-03-23T05:26:20;100004.59;;;3.14;50.09
61113;BME280;47184;57.998;56.184;2023-03-23T05:28:47;100015.38;;;3.09;50.37
61113;BME280;47184;57.998;56.184;2023-03-23T05:31:19;100014.25;;;3.01;50.42
61113;BME280;47184;57.998;56.184;2023-03-23T05:33:45;100005.91;;;2.84;50.32
61113;BME280;47184;57.998;56.184;2023-03-23T05:36:19;99976.03;;;2.64;50.33
61113;BME280;47184;57.998;56.184;2023-03-23T05:39:09;100000.47;;;2.87;50.61
61113;BME280;47184;57.998;56.184;2023-03-23T05:41:55;100005.53;;;3.13;50.60
61113;BME280;47184;57.998;56.184;2023-03-23T05:44:25;100019.34;;;3.72;49.79
61113;BME280;47184;57.998;56.184;2023-03-23T05:46:55;100003.06;;;4.47;48.59
61113;BME280;47184;57.998;56.184;2023-03-23T05:49:21;100014.63;;;4.77;47.95
61113;BME280;47184;57.998;56.184;2023-03-23T05:51:48;100015.63;;;5.08;47.44
61113;BME280;47184;57.998;56.184;2023-03-23T05:54:16;100006.91;;;5.40;45.65
61113;BME280;47184;57.998;56.184;2023-03-23T05:56:45;100004.47;;;6.20;45.49
61113;BME280;47184;57.998;56.184;2023-03-23T05:59:31;99998.31;;;6.01;44.49
61113;BME280;47184;57.998;56.184;2023-03-23T06:02:00;99969.81;;;5.56;44.79
61113;BME280;47184;57.998;56.184;2023-03-23T06:04:27;99983.19;;;5.41;45.85
61113;BME280;47184;57.998;56.184;2023-03-23T06:07:02;99988.69;;;4.53;45.52
61113;BME280;47184;57.998;56.184;2023-03-23T06:09:29;99982.56;;;4.20;47.37
61113;BME280;47184;57.998;56.184;2023-03-23T06:12:09;99997.97;;;4.23;47.24
61113;BME280;47184;57.998;56.184;2023-03-23T06:14:56;99996.00;;;4.05;47.37
61113;BME280;47184;57.998;56.184;2023-03-23T06:17:33;99993.94;;;4.42;47.46
61113;BME280;47184;57.998;56.184;2023-03-23T06:20:00;99984.34;;;5.28;45.78
61113;BME280;47184;57.998;56.184;2023-03-23T06:22:26;100009.28;;;6.65;44.69
61113;BME280;47184;57.998;56.184;2023-03-23T06:25:09;99999.66;;;8.55;42.05
61113;BME280;47184;57.998;56.184;2023-03-23T06:27:42;99993.00;;;8.79;38.50
61113;BME280;47184;57.998;56.184;2023-03-23T06:30:10;99978.22;;;8.23;38.88
61113;BME280;47184;57.998;56.184;2023-03-23T06:32:37;99970.63;;;8.65;39.59
61113;BME280;47184;57.998;56.184;2023-03-23T06:35:12;99998.47;;;8.67;38.87
61113;BME280;47184;57.998;56.184;2023-03-23T06:37:38;99982.97;;;8.09;39.86
61113;BME280;47184;57.998;56.184;2023-03-23T06:40:14;99983.41;;;8.05;39.91
61113;BME280;47184;57.998;56.184;2023-03-23T06:42:49;99970.19;;;7.87;40.23
61113;BME280;47184;57.998;56.184;2023-03-23T06:45:34;99977.84;;;7.70;39.81
61113;BME280;47184;57.998;56.184;2023-03-23T06:48:20;99968.94;;;7.34;40.38
61113;BME280;47184;57.998;56.184;2023-03-23T06:50:46;99976.84;;;7.05;40.60
61113;BME280;47184;57.998;56.184;2023-03-23T06:53:17;99963.53;;;6.49;41.54
61113;BME280;47184;57.998;56.184;2023-03-23T06:55:50;99966.66;;;6.23;41.88
61113;BME280;47184;57.998;56.184;2023-03-23T06:58:17;99962.09;;;5.85;42.80
61113;BME280;47184;57.998;56.184;2023-03-23T07:00:43;99958.56;;;5.75;43.60
61113;BME280;47184;57.998;56.184;2023-03-23T07:03:12;99961.25;;;5.84;43.01
61113;BME280;47184;57.998;56.184;2023-03-23T07:05:39;99963.09;;;5.93;42.81
61113;BME280;47184;57.998;56.184;2023-03-23T07:08:06;99971.72;;;6.05;42.52
61113;BME280;47184;57.998;56.184;2023-03-23T07:10:47;99969.38;;;6.72;42.29
61113;BME280;47184;57.998;56.184;2023-03-23T07:13:20;99952.03;;;7.47;40.69
61113;BME280;47184;57.998;56.184;2023-03-23T07:15:50;99955.00;;;8.46;39.64
61113;BME280;47184;57.998;56.184;2023-03-23T07:18:19;99967.25;;;8.73;38.43
61113;BME280;47184;57.998;56.184;2023-03-23T07:20:49;99968.78;;;9.11;38.07
61113;BME280;47184;57.998;56.184;2023-03-23T07:23:16;99961.22;;;9.34;37.50
61113;BME280;47184;57.998;56.184;2023-03-23T07:25:52;99953.78;;;9.55;36.50
61113;BME280;47184;57.998;56.184;2023-03-23T07:28:24;99954.50;;;10.00;36.64
61113;BME280;47184;57.998;56.184;2023-03-23T07:30:53;99950.38;;;10.31;35.38
61113;BME280;47184;57.998;56.184;2023-03-23T07:33:20;99949.47;;;10.14;35.99
61113;BME280;47184;57.998;56.184;2023-03-23T07:35:48;99955.25;;;10.18;35.64
61113;BME280;47184;57.998;56.184;2023-03-23T07:38:17;99960.03;;;10.14;35.72
61113;BME280;47184;57.998;56.184;2023-03-23T07:40:47;99944.63;;;10.44;35.52
61113;BME280;47184;57.998;56.184;2023-03-23T07:43:16;99953.66;;;11.08;34.32
61113;BME280;47184;57.998;56.184;2023-03-23T07:46:01;99938.63;;;11.09;34.43
61113;BME280;47184;57.998;56.184;2023-03-23T07:48:41;99925.38;;;10.60;33.61
61113;BME280;47184;57.998;56.184;2023-03-23T07:51:07;99906.19;;;9.57;35.51
61113;BME280;47184;57.998;56.184;2023-03-23T07:53:34;99913.34;;;9.73;35.16
61113;BME280;47184;57.998;56.184;2023-03-23T07:56:20;99933.44;;;10.42;35.37
61113;BME280;47184;57.998;56.184;2023-03-23T07:58:52;99922.56;;;10.53;34.43
61113;BME280;47184;57.998;56.184;2023-03-23T08:01:18;99917.44;;;11.33;34.03
61113;BME280;47184;57.998;56.184;2023-03-23T08:04:03;99906.44;;;11.77;33.17
61113;BME280;47184;57.998;56.184;2023-03-23T08:06:48;99911.53;;;11.95;32.58
61113;BME280;47184;57.998;56.184;2023-03-23T08:09:31;99907.56;;;11.91;31.89
61113;BME280;47184;57.998;56.184;2023-03-23T08:11:57;99905.28;;;11.80;32.50
61113;BME280;47184;57.998;56.184;2023-03-23T08:14:53;99901.31;;;11.92;32.29
61113;BME280;47184;57.998;56.184;2023-03-23T08:17:49;99898.00;;;11.74;32.31
61113;BME280;47184;57.998;56.184;2023-03-23T08:20:35;99896.59;;;11.47;32.44
61113;BME280;47184;57.998;56.184;2023-03-23T08:23:14;99875.19;;;11.17;32.78
61113;BME280;47184;57.998;56.184;2023-03-23T08:26:07;99896.22;;;11.66;31.98
61113;BME280;47184;57.998;56.184;2023-03-23T08:28:52;99884.31;;;11.70;31.83
61113;BME280;47184;57.998;56.184;2023-03-23T08:31:38;99882.03;;;11.59;32.43
61113;BME280;47184;57.998;56.184;2023-03-23T08:34:31;99898.34;;;11.07;32.71
61113;BME280;47184;57.998;56.184;2023-03-23T08:37:17;99873.34;;;11.26;32.77
61113;BME280;47184;57.998;56.184;2023-03-23T08:40:11;99883.19;;;11.56;32.43
61113;BME280;47184;57.998;56.184;2023-03-23T08:43:18;99891.28;;;12.10;31.42
61113;BME280;47184;57.998;56.184;2023-03-23T08:46:07;99873.03;;;12.47;31.25
61113;BME280;47184;57.998;56.184;2023-03-23T08:49:08;99876.13;;;12.96;30.37
61113;BME280;47184;57.998;56.184;2023-03-23T08:51:40;99866.06;;;13.88;30.23
61113;BME280;47184;57.998;56.184;2023-03-23T08:54:09;99868.63;;;14.33;29.62
61113;BME280;47184;57.998;56.184;2023-03-23T08:57:01;99870.41;;;14.11;29.19
61113;BME280;47184;57.998;56.184;2023-03-23T08:59:56;99853.25;;;13.77;29.29
61113;BME280;47184;57.998;56.184;2023-03-23T09:02:53;99865.75;;;14.49;28.80
61113;BME280;47184;57.998;56.184;2023-03-23T09:05:24;99865.53;;;14.72;28.83
61113;BME280;47184;57.998;56.184;2023-03-23T09:08:15;99853.47;;;14.70;28.59
61113;BME280;47184;57.998;56.184;2023-03-23T09:10:42;99856.53;;;15.23;28.20
61113;BME280;47184;57.998;56.184;2023-03-23T09:13:09;99882.84;;;15.11;27.22
61113;BME280;47184;57.998;56.184;2023-03-23T09:15:35;99854.88;;;14.94;27.60
61113;BME280;47184;57.998;56.184;2023-03-23T09:18:01;99868.00;;;15.23;27.19
61113;BME280;47184;57.998;56.184;2023-03-23T09:20:28;99843.31;;;14.80;27.42
61113;BME280;47184;57.998;56.184;2023-03-23T09:22:56;99834.31;;;15.02;26.95
61113;BME280;47184;57.998;56.184;2023-03-23T09:25:25;99823.53;;;14.82;26.52
61113;BME280;47184;57.998;56.184;2023-03-23T09:27:56;99826.41;;;14.23;27.50
61113;BME280;47184;57.998;56.184;2023-03-23T09:30:46;99840.34;;;14.25;27.74
61113;BME280;47184;57.998;56.184;2023-03-23T09:33:14;99819.91;;;13.90;27.82
61113;BME280;47184;57.998;56.184;2023-03-23T09:35:41;99829.38;;;14.13;27.67
61113;BME280;47184;57.998;56.184;2023-03-23T09:38:09;99823.81;;;13.43;28.03
61113;BME280;47184;57.998;56.184;2023-03-23T09:40:51;99820.59;;;13.62;28.46
61113;BME280;47184;57.998;56.184;2023-03-23T09:48:53;99802.88;;;13.48;28.25
61113;BME280;47184;57.998;56.184;2023-03-23T09:53:52;99796.75;;;14.20;27.45
61113;BME280;47184;57.998;56.184;2023-03-23T09:56:20;99801.34;;;14.32;27.27
61113;BME280;47184;57.998;56.184;2023-03-23T09:58:56;99811.41;;;13.79;27.72
61113;BME280;47184;57.998;56.184;2023-03-23T10:01:35;99787.69;;;13.42;27.90
61113;BME280;47184;57.998;56.184;2023-03-23T10:04:27;99801.16;;;13.40;28.15
61113;BME280;47184;57.998;56.184;2023-03-23T10:07:27;99774.13;;;13.22;28.08
61113;BME280;47184;57.998;56.184;2023-03-23T10:10:00;99770.22;;;13.83;27.44
61113;BME280;47184;57.998;56.184;2023-03-23T10:15:17;99762.91;;;14.28;27.05
61113;BME280;47184;57.998;56.184;2023-03-23T10:17:59;99767.28;;;14.36;27.26
61113;BME280;47184;57.998;56.184;2023-03-23T10:20:35;99747.22;;;13.91;26.88
61113;BME280;47184;57.998;56.184;2023-03-23T10:28:37;99748.03;;;15.18;26.29
61113;BME280;47184;57.998;56.184;2023-03-23T10:31:07;99738.31;;;15.39;25.78
61113;BME280;47184;57.998;56.184;2023-03-23T10:33:41;99744.38;;;14.84;25.96
61113;BME280;47184;57.998;56.184;2023-03-23T10:36:29;99738.19;;;14.77;26.45
61113;BME280;47184;57.998;56.184;2023-03-23T10:39:06;99742.28;;;15.08;26.29
61113;BME280;47184;57.998;56.184;2023-03-23T10:41:35;99742.53;;;14.85;26.24
61113;BME280;47184;57.998;56.184;2023-03-23T10:44:10;99729.13;;;14.44;26.40
61113;BME280;47184;57.998;56.184;2023-03-23T10:49:15;99729.91;;;14.94;26.27
61113;BME280;47184;57.998;56.184;2023-03-23T10:51:51;99728.50;;;14.98;26.27
61113;BME280;47184;57.998;56.184;2023-03-23T10:54:27;99725.53;;;15.14;25.56
61113;BME280;47184;57.998;56.184;2023-03-23T10:56:57;99708.69;;;15.55;25.90
61113;BME280;47184;57.998;56.184;2023-03-23T10:59:30;99713.59;;;16.13;24.99
61113;BME280;47184;57.998;56.184;2023-03-23T11:02:00;99712.94;;;15.97;24.74
61113;BME280;47184;57.998;56.184;2023-03-23T11:04:30;99714.34;;;15.87;25.13
61113;BME280;47184;57.998;56.184;2023-03-23T11:07:00;99724.19;;;15.38;25.13
61113;BME280;47184;57.998;56.184;2023-03-23T11:09:38;99704.78;;;14.96;25.59
61113;BME280;47184;57.998;56.184;2023-03-23T11:12:16;99711.56;;;14.99;25.36
61113;BME280;47184;57.998;56.184;2023-03-23T11:14:43;99701.25;;;14.54;25.75
61113;BME280;47184;57.998;56.184;2023-03-23T11:17:26;99715.13;;;14.78;25.70
61113;BME280;47184;57.998;56.184;2023-03-23T11:19:53;99691.59;;;14.81;25.79
61113;BME280;47184;57.998;56.184;2023-03-23T11:22:26;99681.53;;;14.70;25.46
61113;BME280;47184;57.998;56.184;2023-03-23T11:24:55;99677.94;;;14.50;25.62
61113;BME280;47184;57.998;56.184;2023-03-23T11:27:26;99702.09;;;14.33;26.31
61113;BME280;47184;57.998;56.184;2023-03-23T11:32:37;99668.00;;;13.30;27.01
61113;BME280;47184;57.998;56.184;2023-03-23T11:35:06;99677.22;;;13.70;27.04
61113;BME280;47184;57.998;56.184;2023-03-23T11:38:18;99684.56;;;13.90;26.56
61113;BME280;47184;57.998;56.184;2023-03-23T11:40:50;99682.06;;;13.30;27.13
61113;BME280;47184;57.998;56.184;2023-03-23T11:43:22;99681.81;;;13.10;27.36
61113;BME280;47184;57.998;56.184;2023-03-23T11:45:55;99676.94;;;13.44;27.43
61113;BME280;47184;57.998;56.184;2023-03-23T11:51:36;99673.75;;;13.70;27.33
61113;BME280;47184;57.998;56.184;2023-03-23T11:54:33;99652.19;;;14.01;26.85
61113;BME280;47184;57.998;56.184;2023-03-23T11:57:00;99653.81;;;14.02;26.89
61113;BME280;47184;57.998;56.184;2023-03-23T11:59:32;99668.88;;;13.52;27.51
61113;BME280;47184;57.998;56.184;2023-03-23T12:07:38;99672.75;;;13.05;27.64
61113;BME280;47184;57.998;56.184;2023-03-23T12:18:38;99642.44;;;12.93;27.89
61113;BME280;47184;57.998;56.184;2023-03-23T12:24:29;99635.31;;;13.44;27.85
61113;BME280;47184;57.998;56.184;2023-03-23T12:26:54;99643.69;;;13.26;27.64
61113;BME280;47184;57.998;56.184;2023-03-23T12:32:49;99619.25;;;12.80;28.33
61113;BME280;47184;57.998;56.184;2023-03-23T12:39:04;99635.41;;;12.85;28.32
61113;BME280;47184;57.998;56.184;2023-03-23T12:43:59;99614.22;;;12.26;28.93
61113;BME280;47184;57.998;56.184;2023-03-23T12:52:04;99606.63;;;11.16;30.51
61113;BME280;47184;57.998;56.184;2023-03-23T12:54:49;99632.09;;;11.09;30.78
61113;BME280;47184;57.998;56.184;2023-03-23T12:57:35;99620.66;;;11.16;30.50
61113;BME280;47184;57.998;56.184;2023-03-23T13:00:23;99599.91;;;11.36;30.47
61113;BME280;47184;57.998;56.184;2023-03-23T13:02:59;99595.44;;;11.37;30.55
61113;BME280;47184;57.998;56.184;2023-03-23T13:05:32;99610.31;;;11.07;31.01
61113;BME280;47184;57.998;56.184;2023-03-23T13:08:04;99588.22;;;11.00;30.92
61113;BME280;47184;57.998;56.184;2023-03-23T13:10:40;99609.88;;;10.56;32.11
61113;BME280;47184;57.998;56.184;2023-03-23T13:13:17;99612.25;;;10.18;32.53
61113;BME280;47184;57.998;56.184;2023-03-23T13:16:04;99601.00;;;10.32;32.15
61113;BME280;47184;57.998;56.184;2023-03-23T13:21:16;99600.53;;;10.21;33.17
61113;BME280;47184;57.998;56.184;2023-03-23T13:23:52;99588.31;;;10.20;32.40
61113;BME280;47184;57.998;56.184;2023-03-23T13:26:22;99586.19;;;10.15;33.10
61113;BME280;47184;57.998;56.184;2023-03-23T13:31:36;99593.63;;;9.38;34.14
61113;BME280;47184;57.998;56.184;2023-03-23T13:34:25;99601.31;;;8.99;35.00
61113;BME280;47184;57.998;56.184;2023-03-23T13:37:02;99570.88;;;8.28;35.86
61113;BME280;47184;57.998;56.184;2023-03-23T13:50:43;99592.66;;;7.68;38.43
61113;BME280;47184;57.998;56.184;2023-03-23T13:53:01;99586.66;;;7.58;38.46
61113;BME280;47184;57.998;56.184;2023-03-23T14:03:19;99595.47;;;7.31;40.28
61113;BME280;47184;57.998;56.184;2023-03-23T14:10:55;99605.66;;;6.88;42.03
61113;BME280;47184;57.998;56.184;2023-03-23T14:16:04;99614.72;;;6.39;43.64
61113;BME280;47184;57.998;56.184;2023-03-23T14:18:40;99588.44;;;6.21;44.29
61113;BME280;47184;57.998;56.184;2023-03-23T14:21:15;99623.81;;;6.44;44.06
61113;BME280;47184;57.998;56.184;2023-03-23T14:23:42;99626.50;;;6.25;44.94
61113;BME280;47184;57.998;56.184;2023-03-23T14:26:15;99613.56;;;6.14;45.84
61113;BME280;47184;57.998;56.184;2023-03-23T14:28:44;99610.66;;;6.17;45.26
61113;BME280;47184;57.998;56.184;2023-03-23T14:31:27;99603.78;;;6.06;45.81
61113;BME280;47184;57.998;56.184;2023-03-23T14:33:55;99609.88;;;5.97;46.86
61113;BME280;47184;57.998;56.184;2023-03-23T14:36:28;99593.59;;;5.74;46.98
61113;BME280;47184;57.998;56.184;2023-03-23T14:39:00;99586.41;;;5.86;46.75
61113;BME280;47184;57.998;56.184;2023-03-23T14:41:29;99605.06;;;5.92;46.88
61113;BME280;47184;57.998;56.184;2023-03-23T14:43:58;99601.31;;;5.85;48.02
61113;BME280;47184;57.998;56.184;2023-03-23T14:46:26;99614.00;;;5.70;49.13
61113;BME280;47184;57.998;56.184;2023-03-23T14:48:52;99595.00;;;5.68;48.79
61113;BME280;47184;57.998;56.184;2023-03-23T14:51:20;99585.19;;;5.70;49.40
61113;BME280;47184;57.998;56.184;2023-03-23T14:53:46;99568.66;;;5.51;49.66
61113;BME280;47184;57.998;56.184;2023-03-23T14:56:18;99587.53;;;5.54;50.45
61113;BME280;47184;57.998;56.184;2023-03-23T14:58:51;99579.84;;;5.43;50.93
61113;BME280;47184;57.998;56.184;2023-03-23T15:01:37;99588.41;;;5.35;51.84
61113;BME280;47184;57.998;56.184;2023-03-23T15:04:17;99586.34;;;5.39;51.47
61113;BME280;47184;57.998;56.184;2023-03-23T15:06:49;99568.81;;;5.30;52.18
61113;BME280;47184;57.998;56.184;2023-03-23T15:09:19;99596.78;;;5.29;52.66
61113;BME280;47184;57.998;56.184;2023-03-23T15:12:01;99603.81;;;5.19;53.79
61113;BME280;47184;57.998;56.184;2023-03-23T15:14:49;99604.91;;;5.26;53.38